sensor_id;sensor_type;location;lat;lon;timestamp;pressure;altitude;pressure_sealevel;temperature;humidity
8061;BME280;4073;42.626;25.386;2023-08-17T00:00:36;97234.72;;;21.28;100.00
8061;BME280;4073;42.626;25.386;2023-08-17T00:03:01;97245.25;;;21.17;100.00
8061;BME280;4073;42.626;25.386;2023-08-17T00:05:27;97246.78;;;21.06;100.00
8061;BME280;4073;42.626;25.386;2023-08-17T00:07:52;97245.97;;;20.94;100.00
8061;BME280;4073;42.626;25.386;2023-08-17T00:10:18;97228.63;;;20.86;100.00
8061;BME280;4073;42.626;25.386;2023-08-17T00:12:43;97242.97;;;20.87;100.00
8061;BME280;4073;42.626;25.386;2023-08-17T00:15:09;97233.44;;;20.81;100.00
8061;BME280;4073;42.626;25.386;2023-08-17T00:17:35;97234.16;;;20.78;100.00
8061;BME280;4073;42.626;25.386;2023-08-17T00:20:00;97230.72;;;20.69;100.00
8061;BME280;4073;42.626;25.386;2023-08-17T00:22:25;97233.44;;;20.69;100.00
8061;BME280;4073;42.626;25.386;2023-08-17T00:24:51;97240.00;;;20.68;100.00
8061;BME280;4073;42.626;25.386;2023-08-17T00:27:16;97227.84;;;20.65;100.00
8061;BME280;4073;42.626;25.386;2023-08-17T00:29:42;97230.56;;;20.65;100.00
8061;BME280;4073;42.626;25.386;2023-08-17T00:32:07;97222.31;;;20.62;100.00
8061;BME280;4073;42.626;25.386;2023-08-17T00:34:33;97234.97;;;20.58;100.00
8061;BME280;4073;42.626;25.386;2023-08-17T00:36:58;97231.47;;;20.57;100.00
8061;BME280;4073;42.626;25.386;2023-08-17T00:39:24;97239.47;;;20.54;100.00
8061;BME280;4073;42.626;25.386;2023-08-17T00:41:49;97235.81;;;20.50;100.00
8061;BME280;4073;42.626;25.386;2023-08-17T00:44:14;97238.09;;;20.48;100.00
8061;BME280;4073;42.626;25.386;2023-08-17T00:46:40;97240.16;;;20.51;100.00
8061;BME280;4073;42.626;25.386;2023-08-17T00:49:06;97239.03;;;20.52;100.00
8061;BME280;4073;42.626;25.386;2023-08-17T00:51:32;97239.03;;;20.52;100.00
8061;BME280;4073;42.626;25.386;2023-08-17T00:53:59;97234.25;;;20.49;100.00
8061;BME280;4073;42.626;25.386;2023-08-17T00:56:27;97235.13;;;20.41;100.00
8061;BME280;4073;42.626;25.386;2023-08-17T00:58:53;97234.59;;;20.26;100.00
8061;BME280;4073;42.626;25.386;2023-08-17T01:01:19;97233.66;;;20.22;100.00
8061;BME280;4073;42.626;25.386;2023-08-17T01:03:45;97222.09;;;20.13;100.00
8061;BME280;4073;42.626;25.386;2023-08-17T01:06:11;97231.69;;;20.11;100.00
8061;BME280;4073;42.626;25.386;2023-08-17T01:08:37;97221.66;;;20.03;100.00
8061;BME280;4073;42.626;25.386;2023-08-17T01:14:05;97220.06;;;20.02;100.00
8061;BME280;4073;42.626;25.386;2023-08-17T01:16:42;97221.19;;;20.01;100.00
8061;BME280;4073;42.626;25.386;2023-08-17T01:19:13;97216.56;;;20.01;100.00
8061;BME280;4073;42.626;25.386;2023-08-17T01:21:49;97212.06;;;20.05;100.00
8061;BME280;4073;42.626;25.386;2023-08-17T01:24:15;97211.59;;;20.03;100.00
8061;BME280;4073;42.626;25.386;2023-08-17T01:26:40;97209.22;;;20.02;100.00
8061;BME280;4073;42.626;25.386;2023-08-17T01:29:06;97208.69;;;20.08;100.00
8061;BME280;4073;42.626;25.386;2023-08-17T01:31:39;97205.63;;;20.10;100.00
8061;BME280;4073;42.626;25.386;2023-08-17T01:34:11;97211.25;;;20.13;100.00
8061;BME280;4073;42.626;25.386;2023-08-17T01:36:47;97207.88;;;20.16;100.00
8061;BME280;4073;42.626;25.386;2023-08-17T01:39:16;97209.78;;;20.16;100.00
8061;BME280;4073;42.626;25.386;2023-08-17T01:41:43;97203.69;;;20.19;100.00
8061;BME280;4073;42.626;25.386;2023-08-17T01:44:12;97201.75;;;20.19;100.00
8061;BME280;4073;42.626;25.386;2023-08-17T01:46:37;97206.91;;;20.12;100.00
8061;BME280;4073;42.626;25.386;2023-08-17T01:49:03;97208.56;;;20.05;100.00
8061;BME280;4073;42.626;25.386;2023-08-17T01:51:29;97204.25;;;20.04;100.00
8061;BME280;4073;42.626;25.386;2023-08-17T01:53:54;97208.75;;;20.00;100.00
8061;BME280;4073;42.626;25.386;2023-08-17T01:56:20;97209.78;;;19.87;100.00
8061;BME280;4073;42.626;25.386;2023-08-17T01:58:45;97194.72;;;19.77;100.00
8061;BME280;4073;42.626;25.386;2023-08-17T02:01:10;97197.63;;;19.72;100.00
8061;BME280;4073;42.626;25.386;2023-08-17T02:03:36;97200.84;;;19.66;100.00
8061;BME280;4073;42.626;25.386;2023-08-17T02:06:02;97192.91;;;19.61;100.00
8061;BME280;4073;42.626;25.386;2023-08-17T02:08:27;97182.25;;;19.56;100.00
8061;BME280;4073;42.626;25.386;2023-08-17T02:10:53;97178.97;;;19.42;100.00
8061;BME280;4073;42.626;25.386;2023-08-17T02:13:18;97196.78;;;19.51;100.00
8061;BME280;4073;42.626;25.386;2023-08-17T02:15:45;97191.72;;;19.41;100.00
8061;BME280;4073;42.626;25.386;2023-08-17T02:18:11;97183.78;;;19.36;100.00
8061;BME280;4073;42.626;25.386;2023-08-17T02:20:36;97185.41;;;19.29;100.00
8061;BME280;4073;42.626;25.386;2023-08-17T02:23:02;97183.66;;;19.24;100.00
8061;BME280;4073;42.626;25.386;2023-08-17T02:25:27;97186.56;;;19.28;100.00
8061;BME280;4073;42.626;25.386;2023-08-17T02:28:00;97185.41;;;19.29;100.00
8061;BME280;4073;42.626;25.386;2023-08-17T02:30:26;97189.38;;;19.31;100.00
8061;BME280;4073;42.626;25.386;2023-08-17T02:32:51;97193.22;;;19.30;100.00
8061;BME280;4073;42.626;25.386;2023-08-17T02:35:17;97196.53;;;19.36;100.00
8061;BME280;4073;42.626;25.386;2023-08-17T02:37:42;97198.81;;;19.34;100.00
8061;BME280;4073;42.626;25.386;2023-08-17T02:40:08;97198.66;;;19.30;100.00
8061;BME280;4073;42.626;25.386;2023-08-17T02:42:34;97198.00;;;19.33;100.00
8061;BME280;4073;42.626;25.386;2023-08-17T02:44:59;97200.38;;;19.35;100.00
8061;BME280;4073;42.626;25.386;2023-08-17T02:47:25;97200.72;;;19.33;100.00
8061;BME280;4073;42.626;25.386;2023-08-17T02:49:50;97201.03;;;19.32;100.00
8061;BME280;4073;42.626;25.386;2023-08-17T02:52:16;97198.94;;;19.37;100.00
8061;BME280;4073;42.626;25.386;2023-08-17T02:54:41;97212.03;;;19.35;100.00
8061;BME280;4073;42.626;25.386;2023-08-17T02:57:06;97202.63;;;19.33;100.00
8061;BME280;4073;42.626;25.386;2023-08-17T02:59:32;97202.34;;;19.26;100.00
8061;BME280;4073;42.626;25.386;2023-08-17T03:01:57;97206.66;;;19.18;100.00
8061;BME280;4073;42.626;25.386;2023-08-17T03:04:23;97197.75;;;19.09;100.00
8061;BME280;4073;42.626;25.386;2023-08-17T03:06:49;97202.72;;;18.99;100.00
8061;BME280;4073;42.626;25.386;2023-08-17T03:09:14;97205.75;;;18.97;100.00
8061;BME280;4073;42.626;25.386;2023-08-17T03:11:40;97202.91;;;19.02;100.00
8061;BME280;4073;42.626;25.386;2023-08-17T03:14:05;97199.56;;;18.97;100.00
8061;BME280;4073;42.626;25.386;2023-08-17T03:16:31;97199.69;;;19.00;100.00
8061;BME280;4073;42.626;25.386;2023-08-17T03:18:56;97205.72;;;19.06;100.00
8061;BME280;4073;42.626;25.386;2023-08-17T03:21:22;97206.44;;;18.94;100.00
8061;BME280;4073;42.626;25.386;2023-08-17T03:23:48;97199.91;;;18.87;100.00
8061;BME280;4073;42.626;25.386;2023-08-17T03:26:14;97203.88;;;18.89;100.00
8061;BME280;4073;42.626;25.386;2023-08-17T03:28:39;97205.47;;;18.90;100.00
8061;BME280;4073;42.626;25.386;2023-08-17T03:31:06;97214.41;;;18.91;100.00
8061;BME280;4073;42.626;25.386;2023-08-17T03:33:34;97212.78;;;18.98;100.00
8061;BME280;4073;42.626;25.386;2023-08-17T03:36:00;97206.56;;;18.98;100.00
8061;BME280;4073;42.626;25.386;2023-08-17T03:38:25;97219.28;;;19.06;100.00
8061;BME280;4073;42.626;25.386;2023-08-17T03:40:51;97216.09;;;19.12;100.00
8061;BME280;4073;42.626;25.386;2023-08-17T03:43:17;97216.09;;;19.12;100.00
8061;BME280;4073;42.626;25.386;2023-08-17T03:45:42;97211.94;;;19.15;100.00
8061;BME280;4073;42.626;25.386;2023-08-17T03:48:08;97218.47;;;19.14;100.00
8061;BME280;4073;42.626;25.386;2023-08-17T03:50:34;97214.97;;;19.13;100.00
8061;BME280;4073;42.626;25.386;2023-08-17T03:53:00;97217.66;;;19.13;100.00
8061;BME280;4073;42.626;25.386;2023-08-17T03:55:25;97202.38;;;19.09;100.00
8061;BME280;4073;42.626;25.386;2023-08-17T03:57:51;97214.91;;;19.22;100.00
8061;BME280;4073;42.626;25.386;2023-08-17T04:00:17;97216.84;;;19.30;100.00
8061;BME280;4073;42.626;25.386;2023-08-17T04:02:42;97211.38;;;19.38;100.00
8061;BME280;4073;42.626;25.386;2023-08-17T04:05:08;97217.88;;;19.46;100.00
8061;BME280;4073;42.626;25.386;2023-08-17T04:07:34;97217.50;;;19.56;100.00
8061;BME280;4073;42.626;25.386;2023-08-17T04:09:59;97226.72;;;19.63;100.00
8061;BME280;4073;42.626;25.386;2023-08-17T04:12:25;97224.00;;;19.63;100.00
8061;BME280;4073;42.626;25.386;2023-08-17T04:14:50;97231.59;;;19.70;100.00
8061;BME280;4073;42.626;25.386;2023-08-17T04:17:16;97226.84;;;19.67;100.00
8061;BME280;4073;42.626;25.386;2023-08-17T04:19:41;97230.84;;;19.69;100.00
8061;BME280;4073;42.626;25.386;2023-08-17T04:22:07;97217.72;;;19.71;100.00
8061;BME280;4073;42.626;25.386;2023-08-17T04:24:32;97228.06;;;19.78;100.00
8061;BME280;4073;42.626;25.386;2023-08-17T04:26:58;97236.16;;;19.86;100.00
8061;BME280;4073;42.626;25.386;2023-08-17T04:29:23;97231.00;;;19.93;100.00
8061;BME280;4073;42.626;25.386;2023-08-17T04:31:49;97237.47;;;20.01;100.00
8061;BME280;4073;42.626;25.386;2023-08-17T04:34:14;97231.06;;;20.05;100.00
8061;BME280;4073;42.626;25.386;2023-08-17T04:36:40;97223.25;;;20.04;100.00
8061;BME280;4073;42.626;25.386;2023-08-17T04:39:05;97230.88;;;20.10;100.00
8061;BME280;4073;42.626;25.386;2023-08-17T04:41:31;97221.94;;;20.10;100.00
8061;BME280;4073;42.626;25.386;2023-08-17T04:43:56;97231.09;;;20.26;100.00
8061;BME280;4073;42.626;25.386;2023-08-17T04:46:22;97230.53;;;20.32;100.00
8061;BME280;4073;42.626;25.386;2023-08-17T04:48:47;97227.75;;;20.41;100.00
8061;BME280;4073;42.626;25.386;2023-08-17T04:51:15;97228.97;;;20.52;100.00
8061;BME280;4073;42.626;25.386;2023-08-17T04:53:40;97220.84;;;20.64;100.00
8061;BME280;4073;42.626;25.386;2023-08-17T04:56:06;97213.59;;;20.68;100.00
8061;BME280;4073;42.626;25.386;2023-08-17T04:58:31;97223.97;;;20.87;100.00
8061;BME280;4073;42.626;25.386;2023-08-17T05:00:57;97222.88;;;21.00;100.00
8061;BME280;4073;42.626;25.386;2023-08-17T05:03:23;97222.03;;;21.20;100.00
8061;BME280;4073;42.626;25.386;2023-08-17T05:05:49;97217.19;;;21.37;100.00
8061;BME280;4073;42.626;25.386;2023-08-17T05:08:14;97218.53;;;21.55;100.00
8061;BME280;4073;42.626;25.386;2023-08-17T05:10:40;97222.84;;;21.80;100.00
8061;BME280;4073;42.626;25.386;2023-08-17T05:13:05;97215.22;;;21.98;100.00
8061;BME280;4073;42.626;25.386;2023-08-17T05:15:31;97215.28;;;22.25;100.00
8061;BME280;4073;42.626;25.386;2023-08-17T05:17:56;97228.13;;;22.52;100.00
8061;BME280;4073;42.626;25.386;2023-08-17T05:20:21;97227.31;;;22.79;100.00
8061;BME280;4073;42.626;25.386;2023-08-17T05:22:47;97222.88;;;23.03;100.00
8061;BME280;4073;42.626;25.386;2023-08-17T05:25:13;97231.38;;;23.29;100.00
8061;BME280;4073;42.626;25.386;2023-08-17T05:27:38;97220.91;;;23.46;100.00
8061;BME280;4073;42.626;25.386;2023-08-17T05:30:04;97229.47;;;23.79;100.00
8061;BME280;4073;42.626;25.386;2023-08-17T05:32:30;97230.78;;;24.01;100.00
8061;BME280;4073;42.626;25.386;2023-08-17T05:34:56;97226.16;;;24.20;100.00
8061;BME280;4073;42.626;25.386;2023-08-17T05:37:22;97237.19;;;24.43;100.00
8061;BME280;4073;42.626;25.386;2023-08-17T05:39:47;97237.97;;;24.62;100.00
8061;BME280;4073;42.626;25.386;2023-08-17T05:42:13;97231.28;;;24.79;100.00
8061;BME280;4073;42.626;25.386;2023-08-17T05:44:38;97232.84;;;24.99;100.00
8061;BME280;4073;42.626;25.386;2023-08-17T05:47:04;97233.09;;;25.13;100.00
8061;BME280;4073;42.626;25.386;2023-08-17T05:49:29;97227.50;;;25.29;100.00
8061;BME280;4073;42.626;25.386;2023-08-17T05:51:55;97237.28;;;25.49;100.00
8061;BME280;4073;42.626;25.386;2023-08-17T05:54:20;97239.88;;;25.64;100.00
8061;BME280;4073;42.626;25.386;2023-08-17T05:56:46;97240.97;;;25.82;100.00
8061;BME280;4073;42.626;25.386;2023-08-17T05:59:13;97238.09;;;25.98;100.00
8061;BME280;4073;42.626;25.386;2023-08-17T06:01:39;97234.81;;;26.15;100.00
8061;BME280;4073;42.626;25.386;2023-08-17T06:04:06;97232.75;;;26.38;100.00
8061;BME280;4073;42.626;25.386;2023-08-17T06:06:32;97235.66;;;26.48;100.00
8061;BME280;4073;42.626;25.386;2023-08-17T06:08:57;97229.28;;;26.70;99.14
8061;BME280;4073;42.626;25.386;2023-08-17T06:11:23;97225.63;;;26.92;97.75
8061;BME280;4073;42.626;25.386;2023-08-17T06:13:49;97231.38;;;27.17;94.64
8061;BME280;4073;42.626;25.386;2023-08-17T06:16:14;97226.06;;;27.34;93.08
8061;BME280;4073;42.626;25.386;2023-08-17T06:18:41;97225.84;;;27.54;91.24
8061;BME280;4073;42.626;25.386;2023-08-17T06:21:07;97231.94;;;27.80;89.31
8061;BME280;4073;42.626;25.386;2023-08-17T06:23:32;97238.00;;;28.03;88.39
8061;BME280;4073;42.626;25.386;2023-08-17T06:25:58;97226.72;;;28.19;86.84
8061;BME280;4073;42.626;25.386;2023-08-17T06:28:26;97230.03;;;28.45;85.61
8061;BME280;4073;42.626;25.386;2023-08-17T06:30:53;97233.31;;;28.72;83.34
8061;BME280;4073;42.626;25.386;2023-08-17T06:33:19;97238.47;;;28.91;79.97
8061;BME280;4073;42.626;25.386;2023-08-17T06:35:45;97240.50;;;29.08;79.88
8061;BME280;4073;42.626;25.386;2023-08-17T06:38:10;97241.72;;;29.21;78.40
8061;BME280;4073;42.626;25.386;2023-08-17T06:40:35;97232.31;;;29.50;76.29
8061;BME280;4073;42.626;25.386;2023-08-17T06:43:01;97218.97;;;29.69;73.10
8061;BME280;4073;42.626;25.386;2023-08-17T06:45:26;97226.78;;;30.06;71.01
8061;BME280;4073;42.626;25.386;2023-08-17T06:47:52;97230.72;;;30.26;69.07
8061;BME280;4073;42.626;25.386;2023-08-17T06:50:17;97240.09;;;30.53;67.92
8061;BME280;4073;42.626;25.386;2023-08-17T06:52:43;97226.22;;;30.78;62.60
8061;BME280;4073;42.626;25.386;2023-08-17T06:55:08;97223.34;;;30.99;59.21
8061;BME280;4073;42.626;25.386;2023-08-17T06:57:35;97213.81;;;31.10;58.31
8061;BME280;4073;42.626;25.386;2023-08-17T07:00:00;97222.34;;;31.37;55.19
8061;BME280;4073;42.626;25.386;2023-08-17T07:02:26;97218.59;;;31.64;54.68
8061;BME280;4073;42.626;25.386;2023-08-17T07:04:51;97212.03;;;31.95;55.27
8061;BME280;4073;42.626;25.386;2023-08-17T07:07:17;97217.59;;;32.33;52.73
8061;BME280;4073;42.626;25.386;2023-08-17T07:09:42;97218.66;;;32.42;49.49
8061;BME280;4073;42.626;25.386;2023-08-17T07:12:07;97224.19;;;32.46;48.07
8061;BME280;4073;42.626;25.386;2023-08-17T07:14:33;97214.56;;;32.54;47.04
8061;BME280;4073;42.626;25.386;2023-08-17T07:16:59;97225.13;;;32.66;46.73
8061;BME280;4073;42.626;25.386;2023-08-17T07:19:24;97215.31;;;32.58;45.76
8061;BME280;4073;42.626;25.386;2023-08-17T07:21:50;97221.78;;;32.78;45.15
8061;BME280;4073;42.626;25.386;2023-08-17T07:24:16;97228.25;;;33.01;46.04
8061;BME280;4073;42.626;25.386;2023-08-17T07:26:42;97208.91;;;33.24;44.07
8061;BME280;4073;42.626;25.386;2023-08-17T07:29:07;97227.03;;;33.29;42.94
8061;BME280;4073;42.626;25.386;2023-08-17T07:31:33;97224.16;;;33.39;42.66
8061;BME280;4073;42.626;25.386;2023-08-17T07:34:00;97222.09;;;33.17;41.91
8061;BME280;4073;42.626;25.386;2023-08-17T07:36:25;97213.25;;;33.52;42.71
8061;BME280;4073;42.626;25.386;2023-08-17T07:38:51;97210.88;;;33.54;41.25
8061;BME280;4073;42.626;25.386;2023-08-17T07:41:16;97210.34;;;33.36;41.60
8061;BME280;4073;42.626;25.386;2023-08-17T07:43:41;97220.94;;;33.67;41.58
8061;BME280;4073;42.626;25.386;2023-08-17T07:46:07;97215.88;;;33.62;40.02
8061;BME280;4073;42.626;25.386;2023-08-17T07:48:32;97213.78;;;33.93;40.15
8061;BME280;4073;42.626;25.386;2023-08-17T07:50:59;97215.88;;;33.85;39.99
8061;BME280;4073;42.626;25.386;2023-08-17T07:53:24;97205.41;;;33.96;40.44
8061;BME280;4073;42.626;25.386;2023-08-17T07:55:50;97204.78;;;34.28;38.65
8061;BME280;4073;42.626;25.386;2023-08-17T07:58:15;97209.91;;;34.10;38.49
8061;BME280;4073;42.626;25.386;2023-08-17T08:00:41;97205.06;;;34.14;38.96
8061;BME280;4073;42.626;25.386;2023-08-17T08:03:06;97224.47;;;33.94;39.00
8061;BME280;4073;42.626;25.386;2023-08-17T08:05:31;97217.00;;;33.65;39.92
8061;BME280;4073;42.626;25.386;2023-08-17T08:07:57;97217.34;;;33.93;38.46
8061;BME280;4073;42.626;25.386;2023-08-17T08:10:22;97208.09;;;34.23;39.38
8061;BME280;4073;42.626;25.386;2023-08-17T08:12:48;97211.84;;;34.33;37.98
8061;BME280;4073;42.626;25.386;2023-08-17T08:15:13;97210.31;;;34.51;38.86
8061;BME280;4073;42.626;25.386;2023-08-17T08:17:39;97205.34;;;34.62;38.14
8061;BME280;4073;42.626;25.386;2023-08-17T08:20:05;97206.66;;;34.58;36.96
8061;BME280;4073;42.626;25.386;2023-08-17T08:22:30;97212.91;;;34.42;37.74
8061;BME280;4073;42.626;25.386;2023-08-17T08:24:57;97204.78;;;34.28;37.67
8061;BME280;4073;42.626;25.386;2023-08-17T08:27:22;97208.44;;;34.25;38.13
8061;BME280;4073;42.626;25.386;2023-08-17T08:29:48;97200.31;;;34.57;37.21
8061;BME280;4073;42.626;25.386;2023-08-17T08:32:14;97197.22;;;34.32;38.26
8061;BME280;4073;42.626;25.386;2023-08-17T08:34:40;97196.81;;;34.73;37.50
8061;BME280;4073;42.626;25.386;2023-08-17T08:37:05;97204.22;;;34.99;36.34
8061;BME280;4073;42.626;25.386;2023-08-17T08:39:30;97185.72;;;35.44;35.92
8061;BME280;4073;42.626;25.386;2023-08-17T08:41:56;97185.69;;;35.76;34.71
8061;BME280;4073;42.626;25.386;2023-08-17T08:44:22;97197.44;;;35.83;34.57
8061;BME280;4073;42.626;25.386;2023-08-17T08:46:48;97188.81;;;35.78;34.33
8061;BME280;4073;42.626;25.386;2023-08-17T08:49:20;97199.34;;;35.70;33.92
8061;BME280;4073;42.626;25.386;2023-08-17T08:51:50;97194.13;;;35.56;34.41
8061;BME280;4073;42.626;25.386;2023-08-17T08:54:24;97188.50;;;35.60;35.06
8061;BME280;4073;42.626;25.386;2023-08-17T08:56:59;97185.13;;;36.13;33.63
8061;BME280;4073;42.626;25.386;2023-08-17T08:59:27;97186.03;;;36.38;33.48
8061;BME280;4073;42.626;25.386;2023-08-17T09:01:55;97179.84;;;36.47;32.71
8061;BME280;4073;42.626;25.386;2023-08-17T09:04:22;97192.25;;;36.59;32.80
8061;BME280;4073;42.626;25.386;2023-08-17T09:06:48;97178.31;;;36.59;32.31
8061;BME280;4073;42.626;25.386;2023-08-17T09:09:16;97183.22;;;36.55;32.60
8061;BME280;4073;42.626;25.386;2023-08-17T09:11:43;97188.97;;;36.47;32.94
8061;BME280;4073;42.626;25.386;2023-08-17T09:14:08;97186.66;;;36.59;33.30
8061;BME280;4073;42.626;25.386;2023-08-17T09:16:34;97180.84;;;36.40;33.38
8061;BME280;4073;42.626;25.386;2023-08-17T09:18:59;97184.56;;;36.63;32.17
8061;BME280;4073;42.626;25.386;2023-08-17T09:21:25;97176.19;;;36.63;31.67
8061;BME280;4073;42.626;25.386;2023-08-17T09:23:55;97196.13;;;36.90;31.49
8061;BME280;4073;42.626;25.386;2023-08-17T09:26:21;97186.41;;;36.24;33.58
8061;BME280;4073;42.626;25.386;2023-08-17T09:28:50;97186.94;;;36.35;33.66
8061;BME280;4073;42.626;25.386;2023-08-17T09:31:20;97172.25;;;36.19;33.63
8061;BME280;4073;42.626;25.386;2023-08-17T09:33:49;97169.94;;;36.46;34.02
8061;BME280;4073;42.626;25.386;2023-08-17T09:36:15;97171.53;;;36.60;33.28
8061;BME280;4073;42.626;25.386;2023-08-17T09:38:40;97173.06;;;37.14;31.91
8061;BME280;4073;42.626;25.386;2023-08-17T09:41:06;97180.53;;;37.05;31.78
8061;BME280;4073;42.626;25.386;2023-08-17T09:43:31;97176.09;;;37.07;31.67
8061;BME280;4073;42.626;25.386;2023-08-17T09:45:59;97174.13;;;37.20;32.27
8061;BME280;4073;42.626;25.386;2023-08-17T09:48:27;97181.25;;;37.46;30.73
8061;BME280;4073;42.626;25.386;2023-08-17T09:50:56;97184.03;;;37.59;31.06
8061;BME280;4073;42.626;25.386;2023-08-17T09:53:23;97182.59;;;37.42;30.74
8061;BME280;4073;42.626;25.386;2023-08-17T09:55:50;97176.13;;;37.20;31.61
8061;BME280;4073;42.626;25.386;2023-08-17T09:58:15;97171.88;;;36.62;32.30
8061;BME280;4073;42.626;25.386;2023-08-17T10:00:49;97176.06;;;35.96;33.30
8061;BME280;4073;42.626;25.386;2023-08-17T10:03:16;97175.72;;;35.46;34.94
8061;BME280;4073;42.626;25.386;2023-08-17T10:05:58;97181.56;;;35.16;36.22
8061;BME280;4073;42.626;25.386;2023-08-17T10:08:26;97176.59;;;35.08;36.49
8061;BME280;4073;42.626;25.386;2023-08-17T10:10:54;97179.97;;;35.51;36.14
8061;BME280;4073;42.626;25.386;2023-08-17T10:13:31;97157.13;;;35.91;35.33
8061;BME280;4073;42.626;25.386;2023-08-17T10:16:14;97174.44;;;36.27;33.36
8061;BME280;4073;42.626;25.386;2023-08-17T10:18:54;97169.81;;;36.21;34.02
8061;BME280;4073;42.626;25.386;2023-08-17T10:21:41;97175.56;;;35.85;35.28
8061;BME280;4073;42.626;25.386;2023-08-17T10:24:09;97177.75;;;35.26;36.21
8061;BME280;4073;42.626;25.386;2023-08-17T10:26:36;97164.56;;;35.30;37.13
8061;BME280;4073;42.626;25.386;2023-08-17T10:29:02;97156.59;;;35.32;36.82
8061;BME280;4073;42.626;25.386;2023-08-17T10:31:29;97152.16;;;35.67;36.29
8061;BME280;4073;42.626;25.386;2023-08-17T10:33:56;97149.94;;;36.06;35.43
8061;BME280;4073;42.626;25.386;2023-08-17T10:36:23;97153.22;;;36.46;35.22
8061;BME280;4073;42.626;25.386;2023-08-17T10:39:25;97147.19;;;37.01;34.48
8061;BME280;4073;42.626;25.386;2023-08-17T10:41:51;97146.09;;;37.24;32.80
8061;BME280;4073;42.626;25.386;2023-08-17T10:44:18;97139.09;;;37.32;31.69
8061;BME280;4073;42.626;25.386;2023-08-17T10:47:25;97140.16;;;36.97;32.53
8061;BME280;4073;42.626;25.386;2023-08-17T10:49:51;97138.84;;;37.01;32.51
8061;BME280;4073;42.626;25.386;2023-08-17T10:52:35;97138.75;;;37.05;32.41
8061;BME280;4073;42.626;25.386;2023-08-17T10:55:05;97135.97;;;37.17;32.45
8061;BME280;4073;42.626;25.386;2023-08-17T11:00:21;97132.06;;;37.02;33.06
8061;BME280;4073;42.626;25.386;2023-08-17T11:02:59;97129.69;;;36.76;33.80
8061;BME280;4073;42.626;25.386;2023-08-17T11:08:11;97121.63;;;36.24;34.87
8061;BME280;4073;42.626;25.386;2023-08-17T11:10:48;97114.53;;;35.62;36.06
8061;BME280;4073;42.626;25.386;2023-08-17T11:13:22;97113.97;;;35.39;36.58
8061;BME280;4073;42.626;25.386;2023-08-17T11:15:48;97109.31;;;35.00;37.27
8061;BME280;4073;42.626;25.386;2023-08-17T11:18:14;97111.13;;;35.07;37.46
8061;BME280;4073;42.626;25.386;2023-08-17T11:20:41;97111.25;;;35.51;36.51
8061;BME280;4073;42.626;25.386;2023-08-17T11:23:08;97113.56;;;35.69;36.27
8061;BME280;4073;42.626;25.386;2023-08-17T11:25:34;97106.09;;;35.66;36.45
8061;BME280;4073;42.626;25.386;2023-08-17T11:28:00;97098.78;;;35.88;35.50
8061;BME280;4073;42.626;25.386;2023-08-17T11:30:27;97097.56;;;36.71;33.68
8061;BME280;4073;42.626;25.386;2023-08-17T11:32:54;97092.81;;;37.22;32.31
8061;BME280;4073;42.626;25.386;2023-08-17T11:35:20;97110.09;;;36.92;32.13
8061;BME280;4073;42.626;25.386;2023-08-17T11:37:47;97108.66;;;36.33;32.29
8061;BME280;4073;42.626;25.386;2023-08-17T11:40:14;97107.31;;;35.81;32.00
8061;BME280;4073;42.626;25.386;2023-08-17T11:42:40;97104.81;;;35.22;32.91
8061;BME280;4073;42.626;25.386;2023-08-17T11:45:06;97114.50;;;34.63;32.97
8061;BME280;4073;42.626;25.386;2023-08-17T11:47:36;97108.84;;;34.50;33.66
8061;BME280;4073;42.626;25.386;2023-08-17T11:50:02;97102.44;;;34.34;34.38
8061;BME280;4073;42.626;25.386;2023-08-17T11:52:28;97101.47;;;34.60;34.98
8061;BME280;4073;42.626;25.386;2023-08-17T11:54:57;97098.97;;;34.85;33.66
8061;BME280;4073;42.626;25.386;2023-08-17T11:57:23;97083.47;;;35.03;33.85
8061;BME280;4073;42.626;25.386;2023-08-17T11:59:48;97094.50;;;35.39;35.27
8061;BME280;4073;42.626;25.386;2023-08-17T12:02:14;97097.34;;;35.51;34.35
8061;BME280;4073;42.626;25.386;2023-08-17T12:04:39;97104.28;;;35.43;34.46
8061;BME280;4073;42.626;25.386;2023-08-17T12:07:05;97096.72;;;35.28;34.95
8061;BME280;4073;42.626;25.386;2023-08-17T12:09:34;97085.88;;;35.49;34.50
8061;BME280;4073;42.626;25.386;2023-08-17T12:12:01;97091.56;;;35.74;35.33
8061;BME280;4073;42.626;25.386;2023-08-17T12:14:27;97100.06;;;35.99;32.38
8061;BME280;4073;42.626;25.386;2023-08-17T12:16:53;97097.22;;;35.71;32.69
8061;BME280;4073;42.626;25.386;2023-08-17T12:19:20;97096.38;;;35.58;32.17
8061;BME280;4073;42.626;25.386;2023-08-17T12:21:48;97096.06;;;35.56;32.63
8061;BME280;4073;42.626;25.386;2023-08-17T12:24:13;97092.84;;;35.41;33.20
8061;BME280;4073;42.626;25.386;2023-08-17T12:26:43;97086.66;;;35.50;36.83
8061;BME280;4073;42.626;25.386;2023-08-17T12:29:09;97091.63;;;35.42;38.51
8061;BME280;4073;42.626;25.386;2023-08-17T12:31:35;97093.00;;;35.50;39.21
8061;BME280;4073;42.626;25.386;2023-08-17T12:34:01;97088.91;;;35.55;38.06
8061;BME280;4073;42.626;25.386;2023-08-17T12:36:26;97082.28;;;35.65;37.28
8061;BME280;4073;42.626;25.386;2023-08-17T12:38:52;97075.06;;;35.83;38.00
8061;BME280;4073;42.626;25.386;2023-08-17T12:41:18;97081.59;;;36.05;37.03
8061;BME280;4073;42.626;25.386;2023-08-17T12:43:43;97084.38;;;36.05;37.60
8061;BME280;4073;42.626;25.386;2023-08-17T12:46:09;97082.25;;;35.97;36.10
8061;BME280;4073;42.626;25.386;2023-08-17T12:48:36;97079.66;;;35.90;36.66
8061;BME280;4073;42.626;25.386;2023-08-17T12:51:01;97071.81;;;35.40;36.89
8061;BME280;4073;42.626;25.386;2023-08-17T12:53:27;97078.81;;;35.61;36.95
8061;BME280;4073;42.626;25.386;2023-08-17T12:55:52;97082.97;;;35.85;36.91
8061;BME280;4073;42.626;25.386;2023-08-17T12:58:18;97076.97;;;35.86;37.89
8061;BME280;4073;42.626;25.386;2023-08-17T13:00:43;97072.00;;;35.94;38.80
8061;BME280;4073;42.626;25.386;2023-08-17T13:03:09;97077.84;;;36.24;38.65
8061;BME280;4073;42.626;25.386;2023-08-17T13:05:34;97071.22;;;36.34;39.33
8061;BME280;4073;42.626;25.386;2023-08-17T13:07:59;97081.44;;;36.25;39.95
8061;BME280;4073;42.626;25.386;2023-08-17T13:10:25;97083.31;;;36.15;38.94